createdAt,value
2019-05-25T00:01:07.554Z,16.87
2019-05-25T00:03:33.448Z,16.94
2019-05-25T00:05:59.316Z,16.87
2019-05-25T00:08:25.203Z,16.94
2019-05-25T00:10:51.054Z,16.81
2019-05-25T00:13:16.899Z,16.81
2019-05-25T00:15:42.856Z,16.75
2019-05-25T00:18:08.803Z,16.81
2019-05-25T00:20:34.646Z,16.62
2019-05-25T00:23:00.508Z,16.75
2019-05-25T00:25:26.403Z,16.69
2019-05-25T00:27:52.271Z,16.56
2019-05-25T00:30:18.118Z,16.50
2019-05-25T00:32:43.951Z,16.50
2019-05-25T00:35:09.999Z,16.44
2019-05-25T00:37:35.860Z,16.37
2019-05-25T00:40:06.452Z,16.56
2019-05-25T00:42:32.349Z,16.37
2019-05-25T00:44:58.172Z,16.19
2019-05-25T00:47:24.007Z,16.12
2019-05-25T00:49:50.115Z,16.19
2019-05-25T00:52:15.992Z,16.06
2019-05-25T00:54:41.827Z,16.00
2019-05-25T00:57:07.693Z,16.00
2019-05-25T00:59:33.540Z,15.94
2019-05-25T01:01:59.396Z,15.81
2019-05-25T01:04:25.215Z,15.81
2019-05-25T01:06:51.043Z,15.75
2019-05-25T01:09:16.962Z,15.75
2019-05-25T01:11:42.821Z,15.69
2019-05-25T01:14:08.748Z,15.94
2019-05-25T01:16:34.607Z,15.63
2019-05-25T01:19:00.456Z,15.44
2019-05-25T01:21:26.292Z,15.50
2019-05-25T01:23:52.146Z,15.56
2019-05-25T01:26:17.996Z,15.31
2019-05-25T01:28:43.925Z,15.31
2019-05-25T01:31:09.763Z,15.25
2019-05-25T01:33:35.630Z,15.38
2019-05-25T01:36:01.459Z,15.25
2019-05-25T01:38:27.596Z,15.13
2019-05-25T01:40:53.536Z,15.25
2019-05-25T01:43:19.392Z,15.06
2019-05-25T01:45:45.404Z,15.06
2019-05-25T01:48:11.321Z,15.00
2019-05-25T01:50:37.162Z,14.94
2019-05-25T01:53:03.196Z,15.00
2019-05-25T01:55:29.030Z,14.81
2019-05-25T01:57:54.880Z,14.81
2019-05-25T02:00:20.724Z,14.69
2019-05-25T02:02:46.572Z,14.81
2019-05-25T02:05:12.418Z,14.63
2019-05-25T02:07:38.270Z,14.87
2019-05-25T02:10:06.583Z,14.44
2019-05-25T02:12:32.515Z,14.56
2019-05-25T02:14:58.516Z,14.50
2019-05-25T02:17:24.358Z,14.44
2019-05-25T02:19:50.186Z,14.44
2019-05-25T02:22:16.028Z,14.25
2019-05-25T02:24:41.853Z,14.31
2019-05-25T02:27:07.712Z,14.06
2019-05-25T02:29:35.993Z,14.06
2019-05-25T02:32:01.930Z,14.13
2019-05-25T02:34:27.778Z,14.25
2019-05-25T02:36:53.604Z,14.00
2019-05-25T02:39:19.447Z,13.94
2019-05-25T02:41:45.404Z,13.94
2019-05-25T02:44:11.250Z,14.00
2019-05-25T02:46:37.127Z,13.81
2019-05-25T02:49:03.277Z,13.75
2019-05-25T02:51:29.212Z,13.88
2019-05-25T02:53:55.050Z,13.69
2019-05-25T02:56:21.178Z,13.69
2019-05-25T02:58:47.050Z,13.69
2019-05-25T03:01:12.914Z,13.44
2019-05-25T03:03:38.830Z,13.56
2019-05-25T03:06:05.214Z,13.38
2019-05-25T03:08:31.166Z,13.38
2019-05-25T03:10:57.408Z,13.50
2019-05-25T03:13:23.235Z,13.38
2019-05-25T03:15:49.063Z,13.31
2019-05-25T03:18:14.903Z,13.25
2019-05-25T03:20:40.730Z,13.13
2019-05-25T03:23:06.585Z,13.25
2019-05-25T03:25:32.467Z,13.06
2019-05-25T03:27:58.413Z,13.06
2019-05-25T03:30:34.887Z,13.13
2019-05-25T03:33:01.028Z,13.06
2019-05-25T03:35:26.940Z,13.25
2019-05-25T03:37:52.769Z,13.13
2019-05-25T03:40:18.620Z,12.94
2019-05-25T03:42:44.457Z,13.06
2019-05-25T03:45:10.327Z,13.13
2019-05-25T03:47:36.161Z,13.06
2019-05-25T03:50:02.144Z,13.06
2019-05-25T03:52:28.500Z,13.13
2019-05-25T03:54:54.574Z,13.13
2019-05-25T03:57:20.491Z,12.81
2019-05-25T03:59:46.353Z,13.00
2019-05-25T04:02:12.451Z,12.88
2019-05-25T04:04:38.500Z,12.88
2019-05-25T04:07:07.326Z,12.94
2019-05-25T04:09:34.253Z,13.00
2019-05-25T04:12:00.191Z,12.88
2019-05-25T04:14:26.125Z,12.88
2019-05-25T04:16:51.959Z,12.81
2019-05-25T04:19:17.864Z,13.06
2019-05-25T04:21:43.784Z,12.88
2019-05-25T04:24:13.765Z,12.88
2019-05-25T04:26:39.777Z,12.88
2019-05-25T04:29:05.744Z,12.81
2019-05-25T04:31:31.865Z,13.00
2019-05-25T04:33:59.495Z,12.88
2019-05-25T04:53:28.866Z,13.38
2019-05-25T04:55:54.707Z,13.38
2019-05-25T04:58:32.707Z,13.44
2019-05-25T05:01:03.260Z,13.44
2019-05-25T05:03:29.647Z,13.56
2019-05-25T05:05:55.579Z,13.75
2019-05-25T05:08:21.550Z,13.81
2019-05-25T05:10:47.550Z,13.69
2019-05-25T05:13:13.507Z,13.88
2019-05-25T05:15:40.180Z,13.94
2019-05-25T05:18:06.027Z,13.88
2019-05-25T05:20:31.962Z,13.88
2019-05-25T05:22:58.060Z,14.06
2019-05-25T05:25:23.959Z,14.00
2019-05-25T05:27:49.897Z,13.94
2019-05-25T05:30:19.880Z,13.75
2019-05-25T05:32:45.732Z,13.81
2019-05-25T05:35:11.705Z,13.81
2019-05-25T05:37:38.652Z,14.19
2019-05-25T05:40:06.016Z,14.06
2019-05-25T05:42:31.837Z,14.25
2019-05-25T05:44:58.316Z,13.94
2019-05-25T05:47:25.287Z,14.00
2019-05-25T05:49:53.028Z,14.00
2019-05-25T05:52:20.138Z,14.25
2019-05-25T05:54:47.296Z,14.06
2019-05-25T05:57:13.228Z,14.19
2019-05-25T05:59:39.085Z,14.13
2019-05-25T06:02:05.021Z,14.06
2019-05-25T06:04:32.868Z,14.19
2019-05-25T06:06:58.796Z,14.38
2019-05-25T06:09:24.686Z,14.25
2019-05-25T06:11:51.956Z,14.44
2019-05-25T06:14:17.850Z,14.31
2019-05-25T06:16:43.822Z,14.38
2019-05-25T06:19:09.772Z,14.25
2019-05-25T06:21:35.601Z,14.44
2019-05-25T06:24:01.454Z,14.56
2019-05-25T06:26:27.281Z,14.69
2019-05-25T06:28:53.168Z,14.63
2019-05-25T06:31:19.161Z,14.81
2019-05-25T06:33:45.003Z,14.87
2019-05-25T06:36:10.990Z,15.13
2019-05-25T06:38:36.864Z,14.75
2019-05-25T06:41:02.733Z,15.25
2019-05-25T06:43:28.612Z,15.06
2019-05-25T06:45:54.440Z,15.06
2019-05-25T06:48:20.260Z,15.06
2019-05-25T06:50:46.232Z,15.25
2019-05-25T06:53:12.152Z,14.94
2019-05-25T06:55:37.978Z,14.75
2019-05-25T06:58:03.873Z,14.75
2019-05-25T07:00:29.730Z,14.69
2019-05-25T07:02:55.572Z,14.94
2019-05-25T07:05:21.423Z,15.00
2019-05-25T07:07:47.269Z,14.81
2019-05-25T07:10:13.309Z,14.87
2019-05-25T07:12:39.158Z,15.06
2019-05-25T07:39:22.790Z,14.81
2019-05-25T07:41:48.678Z,14.81
2019-05-25T07:44:14.641Z,14.81
2019-05-25T07:46:40.492Z,14.81
2019-05-25T07:49:06.372Z,14.63
2019-05-25T07:51:32.279Z,14.63
2019-05-25T07:53:58.175Z,14.69
2019-05-25T07:56:24.071Z,14.69
2019-05-25T07:58:49.946Z,14.69
2019-05-25T08:01:15.989Z,14.75
2019-05-25T08:03:41.945Z,14.75
2019-05-25T08:06:07.897Z,14.75
2019-05-25T08:08:36.611Z,15.13
2019-05-25T08:11:03.207Z,14.87
2019-05-25T08:13:30.258Z,14.94
2019-05-25T08:15:56.257Z,14.69
2019-05-25T08:23:13.693Z,14.81
2019-05-25T08:25:39.729Z,14.81
2019-05-25T08:28:05.675Z,14.63
2019-05-25T08:30:31.720Z,14.87
2019-05-25T08:32:57.715Z,14.63
2019-05-25T08:35:23.980Z,14.94
2019-05-25T08:37:52.405Z,14.63
2019-05-25T08:40:18.362Z,14.81
2019-05-25T08:42:44.292Z,14.69
2019-05-25T08:45:10.335Z,14.63
2019-05-25T08:47:36.415Z,14.81
2019-05-25T08:50:09.649Z,14.75
2019-05-25T08:52:36.290Z,14.56
2019-05-25T08:55:04.288Z,14.75
2019-05-25T08:57:30.283Z,14.56
2019-05-25T08:59:56.225Z,14.50
2019-05-25T09:02:22.296Z,14.44
2019-05-25T09:04:48.681Z,14.75
2019-05-25T09:07:14.670Z,14.56
2019-05-25T09:09:40.651Z,14.75
2019-05-25T09:12:06.606Z,14.94
2019-05-25T09:14:32.577Z,14.94
2019-05-25T09:16:58.920Z,14.87
2019-05-25T09:19:24.999Z,14.87
2019-05-25T09:22:01.963Z,14.94
2019-05-25T09:24:18.703Z,14.87
2019-05-25T09:26:44.539Z,14.75
2019-05-25T09:29:10.823Z,14.94
2019-05-25T09:31:36.848Z,14.75
2019-05-25T09:34:02.952Z,14.75
2019-05-25T09:36:28.841Z,14.63
2019-05-25T09:38:54.906Z,14.69
2019-05-25T09:41:23.590Z,14.75
2019-05-25T09:43:49.421Z,14.75
2019-05-25T09:46:15.267Z,14.81
2019-05-25T09:48:41.133Z,14.87
2019-05-25T09:51:15.470Z,15.13
2019-05-25T09:53:34.910Z,15.31
2019-05-25T09:56:02.189Z,15.44
2019-05-25T09:58:28.113Z,15.25
2019-05-25T10:00:54.042Z,15.31
2019-05-25T10:03:19.887Z,15.25
2019-05-25T10:05:47.655Z,15.44
2019-05-25T10:08:13.500Z,15.44
2019-05-25T10:10:41.265Z,15.25
2019-05-25T10:13:08.284Z,15.50
2019-05-25T10:15:34.131Z,15.38
2019-05-25T10:18:00.080Z,15.38
2019-05-25T10:20:26.075Z,15.63
2019-05-25T10:22:51.920Z,15.75
2019-05-25T10:25:17.960Z,16.12
2019-05-25T10:27:43.792Z,16.00
2019-05-25T10:30:09.810Z,16.06
2019-05-25T10:32:35.665Z,16.00
2019-05-25T10:35:04.077Z,16.00
2019-05-25T10:37:29.931Z,15.88
2019-05-25T10:39:55.854Z,16.19
2019-05-25T10:42:21.682Z,16.19
2019-05-25T10:44:47.565Z,16.12
2019-05-25T10:47:13.434Z,16.25
2019-05-25T10:49:39.260Z,16.37
2019-05-25T10:52:05.196Z,16.44
2019-05-25T10:54:31.038Z,16.44
2019-05-25T10:56:58.273Z,16.44
2019-05-25T10:59:25.208Z,16.31
2019-05-25T11:01:51.079Z,16.31
2019-05-25T11:04:17.005Z,16.37
2019-05-25T11:06:42.848Z,16.37
2019-05-25T11:09:08.674Z,16.44
2019-05-25T11:11:34.503Z,16.56
2019-05-25T11:14:00.342Z,16.56
2019-05-25T11:16:26.164Z,16.56
2019-05-25T11:18:52.119Z,16.56
2019-05-25T11:21:20.712Z,16.56
2019-05-25T11:23:46.536Z,16.56
2019-05-25T11:26:12.378Z,16.69
2019-05-25T11:28:38.200Z,16.62
2019-05-25T11:31:04.048Z,16.69
2019-05-25T11:33:29.995Z,16.50
2019-05-25T11:35:55.867Z,16.44
2019-05-25T11:38:21.762Z,16.44
2019-05-25T11:40:47.732Z,16.50
2019-05-25T11:43:16.865Z,16.56
2019-05-25T11:45:45.368Z,16.56
2019-05-25T11:48:11.736Z,16.81
2019-05-25T11:50:37.591Z,16.69
2019-05-25T11:53:05.839Z,16.56
2019-05-25T11:55:31.279Z,16.50
2019-05-25T11:57:59.328Z,16.62
2019-05-25T12:00:26.143Z,16.62
2019-05-25T12:02:52.436Z,16.69
2019-05-25T12:05:19.653Z,16.62
2019-05-25T12:07:45.610Z,16.56
2019-05-25T12:10:13.330Z,16.62
2019-05-25T12:12:39.217Z,16.69
2019-05-25T12:15:06.666Z,16.62
2019-05-25T12:17:32.561Z,16.50
2019-05-25T12:19:58.499Z,16.50
2019-05-25T12:22:24.363Z,16.44
2019-05-25T12:24:50.207Z,16.50
2019-05-25T12:27:17.060Z,16.50
2019-05-25T12:29:43.018Z,16.56
2019-05-25T12:32:11.711Z,16.50
2019-05-25T12:34:37.567Z,16.56
2019-05-25T12:37:03.587Z,16.50
2019-05-25T12:39:29.435Z,16.37
2019-05-25T12:41:55.370Z,16.25
2019-05-25T12:44:21.351Z,16.31
2019-05-25T12:46:47.209Z,16.75
2019-05-25T12:49:15.097Z,16.62
2019-05-25T12:51:42.935Z,16.69
2019-05-25T12:54:09.177Z,16.62
2019-05-25T12:56:35.213Z,16.62
2019-05-25T12:59:01.082Z,16.62
2019-05-25T13:01:27.043Z,16.75
2019-05-25T13:03:53.470Z,16.56
2019-05-25T13:06:19.393Z,16.75
2019-05-25T13:08:45.323Z,16.75
2019-05-25T13:11:11.278Z,16.62
2019-05-25T13:13:37.140Z,16.56
2019-05-25T13:16:05.031Z,16.44
2019-05-25T13:18:32.413Z,16.50
2019-05-25T13:20:58.295Z,16.50
2019-05-25T13:23:27.148Z,16.62
2019-05-25T13:25:56.225Z,16.44
2019-05-25T13:28:22.202Z,16.31
2019-05-25T13:30:48.301Z,16.81
2019-05-25T13:33:14.218Z,16.75
2019-05-25T13:35:40.071Z,16.62
2019-05-25T13:38:06.020Z,16.62
2019-05-25T13:40:31.858Z,16.44
2019-05-25T13:42:57.825Z,16.44
2019-05-25T13:45:23.684Z,16.31
2019-05-25T13:47:49.589Z,16.31
2019-05-25T13:50:17.346Z,16.25
2019-05-25T13:52:43.179Z,16.37
2019-05-25T13:55:09.231Z,16.25
2019-05-25T13:57:35.083Z,16.44
2019-05-25T14:00:01.037Z,16.37
2019-05-25T14:02:26.887Z,16.31
2019-05-25T14:04:53.015Z,16.37
2019-05-25T14:07:19.711Z,16.50
2019-05-25T14:09:45.627Z,16.62
2019-05-25T14:12:11.580Z,16.44
2019-05-25T14:14:37.437Z,16.56
2019-05-25T14:17:03.278Z,16.50
2019-05-25T14:19:29.208Z,16.44
2019-05-25T14:21:55.030Z,16.44
2019-05-25T14:24:20.992Z,16.75
2019-05-25T14:26:46.850Z,16.62
2019-05-25T14:29:12.773Z,16.50
2019-05-25T14:31:45.430Z,16.31
2019-05-25T14:34:06.397Z,16.31
2019-05-25T14:36:32.323Z,16.25
2019-05-25T14:38:58.271Z,16.25
2019-05-25T14:41:24.190Z,16.31
2019-05-25T14:43:50.015Z,16.25
2019-05-25T14:46:27.291Z,16.44
2019-05-25T14:48:43.637Z,16.75
2019-05-25T14:51:09.483Z,16.87
2019-05-25T14:53:36.864Z,17.12
2019-05-25T14:56:02.717Z,17.44
2019-05-25T14:58:28.740Z,17.25
2019-05-25T15:00:54.564Z,17.75
2019-05-25T15:03:20.411Z,17.44
2019-05-25T15:05:46.287Z,17.37
2019-05-25T15:08:12.132Z,17.37
2019-05-25T15:10:38.039Z,17.25
2019-05-25T15:13:03.912Z,17.12
2019-05-25T15:15:29.776Z,17.12
2019-05-25T15:17:55.625Z,17.31
2019-05-25T15:20:21.570Z,17.25
2019-05-25T15:22:48.536Z,17.19
2019-05-25T15:25:14.916Z,17.06
2019-05-25T15:27:40.768Z,17.37
2019-05-25T15:30:07.235Z,17.00
2019-05-25T15:32:33.074Z,17.25
2019-05-25T15:34:58.978Z,17.19
2019-05-25T15:37:24.928Z,17.06
2019-05-25T15:39:50.782Z,17.44
2019-05-25T15:42:16.609Z,17.44
2019-05-25T15:44:42.461Z,17.25
2019-05-25T15:47:08.352Z,17.31
2019-05-25T15:49:34.318Z,17.00
2019-05-25T15:52:00.170Z,17.12
2019-05-25T15:54:26.001Z,17.00
2019-05-25T15:56:51.856Z,17.06
2019-05-25T15:59:17.728Z,16.94
2019-05-25T16:01:43.566Z,17.25
2019-05-25T16:04:09.412Z,17.00
2019-05-25T16:06:35.253Z,17.19
2019-05-25T16:09:01.101Z,17.12
2019-05-25T16:11:27.135Z,16.87
2019-05-25T16:13:52.952Z,16.94
2019-05-25T16:16:18.811Z,17.06
2019-05-25T16:18:44.696Z,17.06
2019-05-25T16:21:10.540Z,17.06
2019-05-25T16:23:36.368Z,17.06
2019-05-25T16:26:02.197Z,17.06
2019-05-25T16:28:28.146Z,16.81
2019-05-25T16:30:53.979Z,17.00
2019-05-25T16:33:19.866Z,16.75
2019-05-25T16:35:46.165Z,17.31
2019-05-25T16:38:12.266Z,16.87
2019-05-25T16:40:38.170Z,16.81
2019-05-25T16:43:04.221Z,16.81
2019-05-25T16:45:30.148Z,16.56
2019-05-25T16:47:57.327Z,16.75
2019-05-25T16:50:23.167Z,16.62
2019-05-25T16:52:49.158Z,16.75
2019-05-25T16:55:15.107Z,16.62
2019-05-25T16:57:40.958Z,16.56
2019-05-25T17:00:07.107Z,16.56
2019-05-25T17:02:32.935Z,16.81
2019-05-25T17:04:58.782Z,16.44
2019-05-25T17:07:24.632Z,16.56
2019-05-25T17:09:50.496Z,16.44
2019-05-25T17:12:16.372Z,16.56
2019-05-25T17:14:42.224Z,16.56
2019-05-25T17:17:08.177Z,16.31
2019-05-25T17:19:34.151Z,16.50
2019-05-25T17:22:00.067Z,16.37
2019-05-25T17:24:26.203Z,16.44
2019-05-25T17:26:52.083Z,16.44
2019-05-25T17:29:18.344Z,16.44
2019-05-25T17:31:44.178Z,16.62
2019-05-25T17:34:10.023Z,16.37
2019-05-25T17:36:40.232Z,16.37
2019-05-25T17:39:05.517Z,16.37
2019-05-25T17:41:31.618Z,16.25
2019-05-25T17:43:57.507Z,16.25
2019-05-25T17:46:23.351Z,16.37
2019-05-25T17:48:49.187Z,16.25
2019-05-25T17:51:15.928Z,16.19
2019-05-25T17:53:41.842Z,16.12
2019-05-25T17:56:07.674Z,16.19
2019-05-25T17:58:33.519Z,16.12
2019-05-25T18:00:59.339Z,15.94
2019-05-25T18:03:25.183Z,16.06
2019-05-25T18:05:51.067Z,16.12
2019-05-25T18:08:16.923Z,16.12
2019-05-25T18:10:52.689Z,15.94
2019-05-25T18:13:10.521Z,16.12
2019-05-25T18:15:36.382Z,16.12
2019-05-25T18:18:03.831Z,16.06
2019-05-25T18:20:29.683Z,16.06
2019-05-25T18:22:55.611Z,15.88
2019-05-25T18:25:21.436Z,15.75
2019-05-25T18:27:47.283Z,15.56
2019-05-25T18:30:13.328Z,15.50
2019-05-25T18:32:39.216Z,15.44
2019-05-25T18:35:05.775Z,15.44
2019-05-25T18:37:31.682Z,15.50
2019-05-25T18:39:57.556Z,15.63
2019-05-25T18:42:23.457Z,15.44
2019-05-25T18:44:49.318Z,15.31
2019-05-25T18:47:15.171Z,15.44
2019-05-25T18:49:41.079Z,15.19
2019-05-25T18:52:06.971Z,15.38
2019-05-25T18:54:32.902Z,15.31
2019-05-25T18:56:58.926Z,15.31
2019-05-25T18:59:24.778Z,15.38
2019-05-25T19:01:50.924Z,15.44
2019-05-25T19:04:16.853Z,15.38
2019-05-25T19:06:42.694Z,15.31
2019-05-25T19:09:09.040Z,15.44
2019-05-25T19:11:35.900Z,15.25
2019-05-25T19:14:02.196Z,15.25
2019-05-25T19:16:28.149Z,15.25
2019-05-25T19:18:54.275Z,15.44
2019-05-25T19:21:20.177Z,15.13
2019-05-25T19:23:46.059Z,15.19
2019-05-25T19:26:12.031Z,15.19
2019-05-25T19:28:37.968Z,15.25
2019-05-25T19:31:03.958Z,15.31
2019-05-25T19:33:29.887Z,15.00
2019-05-25T19:35:55.755Z,15.06
2019-05-25T19:38:21.703Z,14.94
2019-05-25T19:40:47.537Z,14.94
2019-05-25T19:43:13.358Z,14.87
2019-05-25T19:45:39.271Z,15.06
2019-05-25T19:48:05.092Z,14.87
2019-05-25T19:50:30.959Z,15.00
2019-05-25T19:52:56.797Z,14.94
2019-05-25T19:55:22.701Z,14.94
2019-05-25T19:57:48.688Z,14.87
2019-05-25T20:00:14.964Z,14.75
2019-05-25T20:02:40.837Z,14.81
2019-05-25T20:05:16.306Z,14.87
2019-05-25T20:07:35.116Z,14.87
2019-05-25T20:10:00.977Z,14.75
2019-05-25T20:12:26.801Z,14.81
2019-05-25T20:14:52.648Z,14.69
2019-05-25T20:17:18.599Z,14.69
2019-05-25T20:19:44.589Z,14.63
2019-05-25T20:22:10.449Z,14.75
2019-05-25T20:24:36.322Z,14.56
2019-05-25T20:27:02.180Z,14.56
2019-05-25T20:29:28.118Z,14.69
2019-05-25T20:31:54.012Z,14.63
2019-05-25T20:34:19.853Z,14.50
2019-05-25T20:36:45.959Z,14.56
2019-05-25T20:39:11.885Z,14.44
2019-05-25T20:41:37.889Z,14.38
2019-05-25T20:44:07.083Z,14.25
2019-05-25T20:46:33.037Z,14.38
2019-05-25T20:48:58.943Z,14.19
2019-05-25T20:51:24.815Z,14.25
2019-05-25T20:53:50.727Z,14.25
2019-05-25T20:56:16.789Z,14.25
2019-05-25T20:58:42.990Z,14.25
2019-05-25T21:01:08.863Z,14.19
2019-05-25T21:03:34.690Z,14.13
2019-05-25T21:06:00.524Z,14.19
2019-05-25T21:08:26.350Z,14.13
2019-05-25T21:10:52.217Z,14.13
2019-05-25T21:13:18.050Z,14.06
2019-05-25T21:15:43.922Z,13.94
2019-05-25T21:18:09.763Z,14.06
2019-05-25T21:20:35.635Z,14.00
2019-05-25T21:23:01.490Z,14.00
2019-05-25T21:25:27.510Z,13.88
2019-05-25T21:27:53.464Z,14.00
2019-05-25T21:30:20.514Z,14.06
2019-05-25T21:32:46.472Z,14.06
2019-05-25T21:35:12.432Z,13.88
2019-05-25T21:37:38.375Z,14.06
2019-05-25T21:40:05.994Z,13.88
2019-05-25T21:42:31.894Z,13.94
2019-05-25T21:44:57.794Z,14.19
2019-05-25T21:47:23.742Z,13.81
2019-05-25T21:49:49.570Z,13.81
2019-05-25T21:52:15.448Z,13.81
2019-05-25T21:54:41.368Z,13.75
2019-05-25T21:57:07.226Z,13.88
2019-05-25T21:59:33.155Z,13.62
2019-05-25T22:01:59.019Z,13.62
2019-05-25T22:04:24.959Z,13.81
2019-05-25T22:06:50.805Z,13.88
2019-05-25T22:09:16.633Z,13.75
2019-05-25T22:11:42.487Z,13.56
2019-05-25T22:14:08.492Z,13.75
2019-05-25T22:16:34.319Z,13.62
2019-05-25T22:19:00.195Z,13.62
2019-05-25T22:21:26.531Z,13.56
2019-05-25T22:23:52.503Z,13.56
2019-05-25T22:26:18.367Z,13.62
2019-05-25T22:28:45.440Z,13.56
2019-05-25T22:31:11.476Z,13.50
2019-05-25T22:33:37.354Z,13.50
2019-05-25T22:36:03.482Z,13.44
2019-05-25T22:38:29.303Z,13.44
2019-05-25T22:40:55.211Z,13.50
2019-05-25T22:43:21.135Z,13.44
2019-05-25T22:45:46.978Z,13.56
2019-05-25T22:48:12.833Z,13.44
2019-05-25T22:50:38.664Z,13.38
2019-05-25T22:53:04.500Z,13.38
2019-05-25T22:55:30.355Z,13.56
2019-05-25T22:57:56.346Z,13.31
2019-05-25T23:00:22.297Z,13.38
2019-05-25T23:02:48.911Z,13.25
2019-05-25T23:05:15.061Z,13.31
2019-05-25T23:07:40.902Z,13.19
2019-05-25T23:10:07.233Z,13.25
2019-05-25T23:12:33.212Z,13.19
2019-05-25T23:14:59.105Z,13.38
2019-05-25T23:17:24.946Z,13.31
2019-05-25T23:19:50.791Z,13.19
2019-05-25T23:22:16.629Z,13.31
2019-05-25T23:24:42.473Z,13.31
2019-05-25T23:27:08.318Z,13.31
2019-05-25T23:29:34.149Z,13.13
2019-05-25T23:32:00.006Z,13.19
2019-05-25T23:34:25.906Z,13.06
2019-05-25T23:36:51.775Z,13.06
2019-05-25T23:39:17.610Z,13.13
2019-05-25T23:41:43.456Z,13.13
2019-05-25T23:44:09.305Z,13.06
2019-05-25T23:46:35.136Z,13.06
2019-05-25T23:49:00.979Z,13.06
2019-05-25T23:51:26.801Z,13.06
2019-05-25T23:53:52.689Z,13.13
2019-05-25T23:56:20.741Z,13.19
2019-05-25T23:58:46.741Z,13.13
